Astoria, OR

6:56 AM PST on February 21, 2017 (GMT -0800)
Astoria | | Change Station

Elev 236 ft 46.18 °N, 123.83 °W | Updated 29 minutes ago

Overcast
Overcast
45.7 °F
Feels Like 46 °F
N
0.0
Wind Variable Wind from South

Today
High -- | Low -- °F
--% Chance of Precip.
Yesterday
High -- | Low -- °F
Precip. -- in
Pressure 29.76 in
Visibility 10.0 miles
Clouds Few 800 ft
Few 1500 ft
Overcast 2600 ft
Windchill 46 °F
Dew Point 41 °F
Humidity 83%
Rainfall 0.02 in
Snow Depth Not available.
7:07 AM 5:50 PM
Waning Crescent, 25% visible
SPECI KAST 211428Z AUTO 33007KT 10SM -RA FEW008 FEW015 OVC026 06/04 A2976 RMK AO2 P0001 T00610044
Pressure 29.76 in
Visibility 10.0 miles
Clouds Few 800 ft
Few 1500 ft
Overcast 2600 ft
Windchill 46 °F
Dew Point 41 °F
Humidity 83%
Rainfall 0.02 in
Snow Depth Not available.
7:07 AM 5:50 PM
Waning Crescent, 25% visible
SPECI KAST 211428Z AUTO 33007KT 10SM -RA FEW008 FEW015 OVC026 06/04 A2976 RMK AO2 P0001 T00610044

Get Your Daily Forecast Email!

Thanks for signing up!

Be on the lookout for a verification email in your inbox.

You'll start receiving the daily forecast at 8 AM.

×

10-Day Weather Forecast

Almanac

Astronomy

Feb. 21, 2017 Rise Set
Actual Time
Civil Twilight
Nautical Twilight
Astronomical Twilight
Moon
Length of Visible Light
Length of Day
Tomorrow will be .
, % of the Moon is Illuminated

Today's Extremes

State Highs State Lows

Community

WunderPhotos

Upload Photos

1,962,540 photos uploaded!

WunderBlog® & News

Nearby

Air Quality

  Air Quality AQ Index Pollutant
Not available.

Snow Depth

Station Depth Elevation

Earthquake Activity

City Distance Mag. Time & Date
Minimum magnitude displayed is 2.5.

Coastal Water Temperatures

Place Temperature

Stations

Nearby Weather Stations

Station Location Temp. Windchill Dew Point Humidity Wind Precip. Elev Updated Type
                   

Watches & Warnings

Small Craft for Rough Bar Advisory
Issued: 2:08 AM PST Feb. 21, 2017 – National Weather Service

... Small Craft Advisory for rough bar in effect from 11 am this
morning to 5 PM PST this afternoon...

The National Weather Service in Portland has issued a Small Craft
Advisory for rough bar, which is in effect from 11 am this
morning to 5 PM PST this afternoon.

* In the Main Channel...

* general seas... around 7 feet

* first Ebb... seas near 11 feet with breakers possible during the
Ebb around 115pm Tuesday afternoon.

* Second Ebb... seas near 9 feet during the Ebb around 145 am
Wednesday morning.


Precautionary/preparedness actions...

A Small Craft Advisory for rough bar means that wave conditions
are expected to be hazardous to small craft in or near Harbor
entrances.